createdAt,value
2022-12-20T00:01:47.179Z,31.33
2022-12-20T00:04:14.115Z,37.53
2022-12-20T00:06:40.857Z,29.23
2022-12-20T00:09:08.880Z,31.50
2022-12-20T00:11:38.255Z,32.13
2022-12-20T00:14:05.137Z,29.85
2022-12-20T00:16:33.575Z,28.42
2022-12-20T00:19:02.218Z,31.20
2022-12-20T00:21:30.066Z,34.33
2022-12-20T00:23:57.235Z,34.38
2022-12-20T00:26:27.002Z,25.02
2022-12-20T00:28:54.175Z,28.33
2022-12-20T00:31:22.424Z,31.45
2022-12-20T00:33:52.067Z,27.73
2022-12-20T00:36:20.418Z,34.05
2022-12-20T00:38:48.346Z,29.40
2022-12-20T00:41:18.793Z,32.75
2022-12-20T00:43:45.907Z,35.08
2022-12-20T00:46:14.366Z,32.47
2022-12-20T00:48:41.792Z,35.42
2022-12-20T00:51:13.785Z,31.55
2022-12-20T00:53:40.897Z,29.77
2022-12-20T00:56:08.715Z,26.70
2022-12-20T00:58:36.951Z,30.45
2022-12-20T01:01:04.606Z,34.13
2022-12-20T01:03:31.506Z,39.25
2022-12-20T01:06:00.479Z,29.25
2022-12-20T01:08:30.582Z,33.30
2022-12-20T01:11:01.288Z,32.60
2022-12-20T01:13:28.287Z,26.73
2022-12-20T01:15:55.424Z,30.50
2022-12-20T01:18:22.313Z,31.20
2022-12-20T01:20:49.086Z,34.90
2022-12-20T01:23:15.894Z,33.25
2022-12-20T01:25:44.038Z,34.00
2022-12-20T01:28:10.817Z,34.05
2022-12-20T01:30:40.438Z,33.17
2022-12-20T01:33:07.178Z,25.05
2022-12-20T01:35:33.996Z,29.83
2022-12-20T01:38:00.779Z,26.20
2022-12-20T01:40:27.515Z,43.30
2022-12-20T01:42:55.609Z,38.42
2022-12-20T01:45:27.505Z,32.10
2022-12-20T01:47:55.036Z,40.85
2022-12-20T01:50:22.369Z,36.45
2022-12-20T01:52:49.525Z,36.17
2022-12-20T01:55:19.972Z,36.20
2022-12-20T01:57:51.252Z,42.10
2022-12-20T02:00:20.260Z,39.70
2022-12-20T02:02:49.287Z,37.45
2022-12-20T02:05:19.475Z,37.42
2022-12-20T02:07:50.269Z,37.30
2022-12-20T02:10:18.853Z,49.40
2022-12-20T02:12:47.201Z,47.38
2022-12-20T02:15:35.337Z,36.97
2022-12-20T02:18:15.230Z,40.92
2022-12-20T02:21:14.151Z,41.35
2022-12-20T02:24:22.612Z,30.38
2022-12-20T02:27:22.869Z,34.97
2022-12-20T02:30:13.482Z,39.03
2022-12-20T02:32:46.645Z,31.85
2022-12-20T02:35:20.121Z,37.03
2022-12-20T02:37:48.760Z,28.80
2022-12-20T02:40:18.944Z,32.10
2022-12-20T02:42:46.421Z,29.05
2022-12-20T02:45:15.469Z,29.30
2022-12-20T02:47:49.042Z,28.25
2022-12-20T02:50:19.563Z,27.52
2022-12-20T02:52:46.854Z,31.38
2022-12-20T02:55:13.964Z,30.05
2022-12-20T02:57:49.745Z,27.52
2022-12-20T03:00:22.548Z,30.58
2022-12-20T03:02:51.355Z,28.17
2022-12-20T03:05:20.191Z,27.67
2022-12-20T03:07:47.298Z,26.45
2022-12-20T03:10:14.315Z,27.83
2022-12-20T03:12:41.050Z,35.45
2022-12-20T03:15:08.284Z,28.67
2022-12-20T03:17:36.816Z,30.50
2022-12-20T03:20:04.229Z,31.17
2022-12-20T03:22:30.994Z,23.52
2022-12-20T03:24:57.721Z,28.65
2022-12-20T03:27:24.481Z,26.40
2022-12-20T03:29:51.294Z,35.92
2022-12-20T03:32:18.061Z,31.88
2022-12-20T03:34:46.331Z,31.77
2022-12-20T03:37:13.201Z,28.25
2022-12-20T03:39:40.086Z,25.02
2022-12-20T03:42:06.867Z,31.13
2022-12-20T03:44:33.671Z,24.45
2022-12-20T03:47:00.484Z,27.10
2022-12-20T03:49:27.331Z,26.90
2022-12-20T03:51:55.421Z,25.33
2022-12-20T03:54:22.167Z,26.67
2022-12-20T03:56:48.964Z,24.00
2022-12-20T03:59:16.559Z,28.98
2022-12-20T04:01:43.430Z,27.83
2022-12-20T04:04:12.104Z,30.98
2022-12-20T04:06:38.884Z,33.05
2022-12-20T04:09:07.141Z,34.58
2022-12-20T04:11:33.902Z,27.67
2022-12-20T04:14:00.710Z,31.73
2022-12-20T04:16:29.206Z,27.13
2022-12-20T04:18:56.033Z,28.60
2022-12-20T04:21:23.772Z,23.88
2022-12-20T04:23:50.804Z,27.80
2022-12-20T04:26:19.491Z,28.80
2022-12-20T04:28:46.322Z,26.92
2022-12-20T04:31:17.220Z,21.67
2022-12-20T04:33:47.267Z,32.80
2022-12-20T04:36:14.637Z,29.30
2022-12-20T04:38:42.119Z,27.92
2022-12-20T04:41:08.905Z,20.23
2022-12-20T04:43:36.989Z,27.83
2022-12-20T04:46:03.838Z,29.15
2022-12-20T04:48:56.517Z,33.35
2022-12-20T04:51:17.725Z,26.42
2022-12-20T04:53:44.935Z,31.42
2022-12-20T04:56:11.667Z,27.70
2022-12-20T04:58:39.772Z,29.67
2022-12-20T05:01:06.557Z,27.50
2022-12-20T05:03:33.439Z,26.45
2022-12-20T05:06:00.233Z,32.28
2022-12-20T05:08:27.101Z,30.85
2022-12-20T05:10:54.524Z,27.63
2022-12-20T05:13:21.314Z,26.13
2022-12-20T05:15:52.884Z,29.98
2022-12-20T05:18:19.771Z,28.35
2022-12-20T05:20:46.714Z,28.92
2022-12-20T05:23:13.679Z,29.45
2022-12-20T05:25:43.015Z,22.98
2022-12-20T05:28:09.749Z,26.33
2022-12-20T05:30:36.500Z,23.65
2022-12-20T05:33:04.625Z,27.35
2022-12-20T05:35:31.362Z,28.98
2022-12-20T05:37:58.254Z,22.25
2022-12-20T05:40:24.985Z,29.50
2022-12-20T05:42:51.719Z,21.90
2022-12-20T05:45:18.508Z,27.58
2022-12-20T05:47:45.372Z,28.63
2022-12-20T05:50:18.705Z,23.10
2022-12-20T05:55:12.774Z,28.60
2022-12-20T05:57:39.647Z,23.30
2022-12-20T06:00:08.346Z,26.90
2022-12-20T06:02:35.332Z,24.40
2022-12-20T06:05:02.247Z,20.42
2022-12-20T06:07:30.341Z,28.48
2022-12-20T06:09:57.251Z,31.33
2022-12-20T06:12:24.104Z,28.42
2022-12-20T06:14:51.156Z,22.88
2022-12-20T06:17:18.927Z,28.33
2022-12-20T06:19:45.936Z,22.75
2022-12-20T06:22:12.677Z,23.63
2022-12-20T06:24:47.645Z,31.98
2022-12-20T06:27:15.220Z,22.10
2022-12-20T06:29:41.991Z,28.15
2022-12-20T06:32:08.882Z,32.33
2022-12-20T06:34:35.734Z,34.55
2022-12-20T06:37:02.581Z,28.80
2022-12-20T06:39:29.320Z,24.75
2022-12-20T06:41:57.433Z,24.67
2022-12-20T06:44:24.206Z,25.05
2022-12-20T06:46:50.947Z,28.10
2022-12-20T06:49:17.728Z,27.70
2022-12-20T06:51:44.512Z,27.80
2022-12-20T06:54:11.285Z,27.95
2022-12-20T06:56:41.556Z,29.17
2022-12-20T06:59:10.070Z,20.02
2022-12-20T07:01:36.940Z,22.48
2022-12-20T07:04:04.165Z,23.55
2022-12-20T07:06:30.944Z,24.48
2022-12-20T07:08:57.917Z,28.48
2022-12-20T07:11:24.697Z,31.98
2022-12-20T07:13:55.207Z,26.90
2022-12-20T07:16:23.776Z,30.90
2022-12-20T07:18:52.167Z,27.00
2022-12-20T07:21:19.806Z,26.73
2022-12-20T07:23:46.916Z,32.22
2022-12-20T07:26:14.210Z,27.63
2022-12-20T07:28:42.079Z,25.70
2022-12-20T07:31:08.952Z,35.47
2022-12-20T07:33:37.281Z,29.13
2022-12-20T07:36:05.844Z,28.05
2022-12-20T07:38:33.300Z,27.30
2022-12-20T07:41:00.139Z,27.77
2022-12-20T07:43:26.961Z,29.00
2022-12-20T07:45:55.548Z,23.13
2022-12-20T07:48:22.669Z,30.17
2022-12-20T07:50:51.935Z,30.15
2022-12-20T07:53:19.570Z,24.52
2022-12-20T07:55:47.512Z,31.15
2022-12-20T07:58:16.665Z,31.10
2022-12-20T08:00:43.726Z,26.85
2022-12-20T08:03:12.970Z,25.30
2022-12-20T08:05:44.124Z,26.23
2022-12-20T08:08:12.466Z,27.38
2022-12-20T08:10:39.477Z,19.63
2022-12-20T08:13:07.194Z,22.55
2022-12-20T08:15:34.860Z,21.67
2022-12-20T08:18:01.793Z,21.10
2022-12-20T08:20:28.692Z,25.52
2022-12-20T08:22:55.505Z,26.38
2022-12-20T08:25:23.735Z,22.50
2022-12-20T08:27:50.480Z,31.45
2022-12-20T08:30:17.680Z,34.13
2022-12-20T08:32:44.445Z,29.27
2022-12-20T08:35:11.181Z,29.25
2022-12-20T08:37:37.961Z,28.10
2022-12-20T08:40:06.138Z,31.40
2022-12-20T08:42:34.227Z,23.85
2022-12-20T08:45:00.981Z,22.40
2022-12-20T08:47:29.487Z,26.95
2022-12-20T08:49:56.431Z,25.35
2022-12-20T08:52:23.191Z,25.42
2022-12-20T08:54:50.017Z,24.13
2022-12-20T08:57:16.793Z,25.02
2022-12-20T08:59:44.901Z,31.83
2022-12-20T09:02:11.845Z,30.27
2022-12-20T09:04:38.816Z,29.70
2022-12-20T09:07:05.533Z,24.95
2022-12-20T09:09:32.323Z,34.25
2022-12-20T09:11:59.122Z,23.48
2022-12-20T09:14:25.998Z,27.15
2022-12-20T09:16:54.170Z,26.55
2022-12-20T09:19:20.907Z,35.35
2022-12-20T09:21:47.650Z,33.22
2022-12-20T09:24:14.376Z,22.70
2022-12-20T09:26:41.074Z,22.45
2022-12-20T09:29:07.855Z,23.08
2022-12-20T09:31:34.700Z,20.85
2022-12-20T09:34:02.912Z,28.25
2022-12-20T09:36:30.877Z,16.60
2022-12-20T09:38:58.080Z,25.52
2022-12-20T09:41:29.273Z,26.02
2022-12-20T09:43:57.629Z,19.88
2022-12-20T09:46:25.897Z,22.38
2022-12-20T09:48:53.544Z,23.33
2022-12-20T09:51:43.375Z,23.23
2022-12-20T09:54:19.174Z,24.38
2022-12-20T09:56:54.283Z,22.73
2022-12-20T09:59:21.280Z,21.50
2022-12-20T10:01:49.715Z,30.02
2022-12-20T10:04:21.631Z,24.25
2022-12-20T10:07:04.888Z,21.17
2022-12-20T10:09:51.625Z,17.23
2022-12-20T10:12:32.438Z,19.95
2022-12-20T10:15:13.357Z,26.73
2022-12-20T10:17:51.535Z,15.90
2022-12-20T10:20:28.363Z,19.83
2022-12-20T10:23:01.624Z,21.48
2022-12-20T10:25:31.513Z,21.58
2022-12-20T10:28:00.625Z,25.05
2022-12-20T10:30:29.005Z,22.30
2022-12-20T10:32:57.789Z,22.40
2022-12-20T10:35:27.279Z,25.85
2022-12-20T10:38:09.965Z,22.17
2022-12-20T10:41:18.578Z,20.90
2022-12-20T10:43:26.621Z,19.27
2022-12-20T10:45:59.443Z,23.75
2022-12-20T10:48:30.037Z,18.48
2022-12-20T10:50:58.561Z,19.67
2022-12-20T10:53:27.518Z,18.35
2022-12-20T10:56:12.018Z,23.33
2022-12-20T10:58:39.067Z,26.38
2022-12-20T11:01:12.125Z,19.38
2022-12-20T11:03:51.716Z,18.97
2022-12-20T11:06:20.010Z,18.08
2022-12-20T11:08:52.795Z,15.13
2022-12-20T11:11:24.926Z,19.20
2022-12-20T11:13:52.381Z,22.48
2022-12-20T11:16:34.631Z,19.55
2022-12-20T11:19:11.803Z,21.83
2022-12-20T11:21:46.943Z,27.60
2022-12-20T11:24:21.181Z,32.47
2022-12-20T11:27:15.135Z,26.88
2022-12-20T11:30:09.105Z,22.10
2022-12-20T11:33:02.780Z,19.98
2022-12-20T11:35:38.719Z,22.77
2022-12-20T11:38:11.890Z,20.20
2022-12-20T11:40:47.950Z,18.30
2022-12-20T11:43:31.051Z,17.80
2022-12-20T11:46:15.516Z,25.85
2022-12-20T11:48:54.089Z,30.00
2022-12-20T11:51:42.246Z,20.90
2022-12-20T12:08:33.442Z,22.35
2022-12-20T12:11:04.765Z,26.88
2022-12-20T12:13:36.115Z,23.40
2022-12-20T12:16:07.468Z,21.90
2022-12-20T12:18:35.743Z,24.13
2022-12-20T12:21:10.744Z,28.10
2022-12-20T12:23:46.661Z,30.45
2022-12-20T12:26:20.138Z,27.05
2022-12-20T12:28:49.532Z,25.88
2022-12-20T12:31:22.328Z,26.27
2022-12-20T12:33:56.983Z,23.73
2022-12-20T12:36:56.003Z,27.95
2022-12-20T12:40:00.974Z,30.80
2022-12-20T12:43:02.899Z,22.17
2022-12-20T12:45:34.820Z,25.13
2022-12-20T12:48:06.165Z,19.58
2022-12-20T12:50:36.699Z,22.27
2022-12-20T12:53:08.000Z,17.77
2022-12-20T12:55:37.515Z,27.35
2022-12-20T12:58:29.346Z,25.45
2022-12-20T13:00:57.876Z,25.13
2022-12-20T13:03:48.271Z,26.92
2022-12-20T13:06:53.564Z,24.35
2022-12-20T13:09:39.724Z,24.17
2022-12-20T13:12:47.636Z,22.35
2022-12-20T13:15:46.577Z,18.00
2022-12-20T13:18:27.874Z,37.08
2022-12-20T13:21:31.503Z,20.88
2022-12-20T13:24:38.025Z,24.73
2022-12-20T13:27:26.993Z,30.00
2022-12-20T13:30:13.863Z,25.83
2022-12-20T13:33:25.567Z,21.33
2022-12-20T13:36:33.334Z,26.23
2022-12-20T13:39:02.548Z,24.45
2022-12-20T13:41:41.180Z,29.17
2022-12-20T13:44:33.065Z,36.72
2022-12-20T13:47:06.614Z,23.42
2022-12-20T13:49:37.745Z,33.08
2022-12-20T13:52:22.547Z,24.58
2022-12-20T13:54:52.947Z,29.50
2022-12-20T13:57:27.069Z,23.60
2022-12-20T14:00:05.346Z,26.70
2022-12-20T14:02:36.215Z,25.40
2022-12-20T14:05:06.940Z,28.77
2022-12-20T14:07:33.972Z,33.45
2022-12-20T14:10:03.502Z,24.13
2022-12-20T14:12:36.440Z,29.45
2022-12-20T14:15:22.485Z,28.45
2022-12-20T14:17:49.217Z,22.50
2022-12-20T14:20:22.287Z,30.02
2022-12-20T14:23:00.699Z,36.30
2022-12-20T14:25:41.303Z,26.65
2022-12-20T14:28:23.258Z,26.08
2022-12-20T14:30:55.758Z,26.88
2022-12-20T14:33:29.777Z,25.70
2022-12-20T14:38:28.363Z,20.92
2022-12-20T14:40:55.090Z,23.80
2022-12-20T14:43:28.121Z,24.88
2022-12-20T14:46:17.614Z,27.80
2022-12-20T14:48:44.575Z,28.90
2022-12-20T14:51:13.276Z,25.00
2022-12-20T14:53:40.608Z,26.00
2022-12-20T14:56:14.882Z,25.92
2022-12-20T14:58:41.659Z,26.85
2022-12-20T15:01:19.223Z,29.35
2022-12-20T15:03:50.883Z,28.60
2022-12-20T15:06:32.276Z,34.13
2022-12-20T15:08:59.017Z,35.22
2022-12-20T15:11:25.765Z,25.58
2022-12-20T15:13:54.035Z,28.05
2022-12-20T15:16:24.226Z,23.88
2022-12-20T15:18:52.502Z,29.85
2022-12-20T15:21:27.225Z,25.60
2022-12-20T15:23:55.599Z,25.85
2022-12-20T15:26:24.920Z,28.02
2022-12-20T15:28:51.855Z,29.88
2022-12-20T15:31:20.433Z,32.22
2022-12-20T15:33:48.626Z,28.40
2022-12-20T15:36:17.880Z,36.40
2022-12-20T15:39:11.466Z,33.72
2022-12-20T15:41:33.106Z,30.35
2022-12-20T15:44:03.603Z,27.13
2022-12-20T15:46:30.437Z,23.77
2022-12-20T15:48:58.873Z,23.02
2022-12-20T15:51:30.056Z,26.90
2022-12-20T15:53:57.369Z,39.72
2022-12-20T15:56:25.403Z,24.15
2022-12-20T15:58:52.198Z,26.80
2022-12-20T16:01:23.149Z,40.08
2022-12-20T16:03:50.078Z,33.03
2022-12-20T16:06:18.484Z,23.42
2022-12-20T16:08:45.405Z,26.95
2022-12-20T16:11:20.021Z,34.70
2022-12-20T16:13:46.945Z,26.40
2022-12-20T16:16:17.553Z,29.90
2022-12-20T16:18:44.520Z,49.92
2022-12-20T16:21:16.072Z,29.63
2022-12-20T16:23:44.634Z,37.92
2022-12-20T16:26:13.435Z,35.83
2022-12-20T16:28:40.361Z,39.47
2022-12-20T16:31:12.048Z,42.47
2022-12-20T16:33:38.768Z,31.65
2022-12-20T16:36:06.065Z,36.40
2022-12-20T16:38:32.784Z,41.83
2022-12-20T16:41:11.485Z,37.15
2022-12-20T16:43:39.121Z,36.38
2022-12-20T16:46:06.131Z,32.38
2022-12-20T16:48:32.853Z,29.65
2022-12-20T16:50:59.582Z,38.00
2022-12-20T16:53:26.297Z,41.83
2022-12-20T16:55:53.046Z,33.35
2022-12-20T16:58:21.202Z,25.65
2022-12-20T17:00:47.972Z,36.85
2022-12-20T17:03:16.522Z,37.42
2022-12-20T17:05:43.483Z,30.05
2022-12-20T17:13:23.612Z,26.88
2022-12-20T17:15:50.437Z,31.05
2022-12-20T17:18:17.199Z,40.22
2022-12-20T17:20:43.872Z,37.30
2022-12-20T17:26:00.439Z,38.47
2022-12-20T17:28:28.488Z,28.45
2022-12-20T17:30:55.238Z,27.05
2022-12-20T17:33:22.003Z,26.83
2022-12-20T17:35:48.714Z,35.38
2022-12-20T17:38:15.445Z,37.90
2022-12-20T17:40:42.130Z,30.27
2022-12-20T17:43:10.694Z,30.70
2022-12-20T17:45:38.812Z,37.42
2022-12-20T17:48:06.198Z,81.93
2022-12-20T17:50:32.961Z,45.70
2022-12-20T17:52:59.675Z,46.33
2022-12-20T17:55:27.778Z,38.35
2022-12-20T17:57:55.511Z,27.30
2022-12-20T18:00:26.026Z,30.63
2022-12-20T18:02:54.585Z,33.83
2022-12-20T18:05:22.682Z,36.25
2022-12-20T18:07:50.642Z,43.80
2022-12-20T18:10:17.463Z,78.97
2022-12-20T18:12:44.209Z,42.42
2022-12-20T18:15:11.357Z,37.28
2022-12-20T18:17:38.088Z,44.65
2022-12-20T18:20:08.605Z,36.72
2022-12-20T18:22:35.934Z,34.80
2022-12-20T18:25:02.983Z,37.55
2022-12-20T18:27:30.973Z,41.85
2022-12-20T18:29:57.847Z,37.03
2022-12-20T18:32:24.776Z,41.33
2022-12-20T18:34:51.543Z,45.13
2022-12-20T18:37:19.631Z,44.45
2022-12-20T18:39:46.372Z,44.42
2022-12-20T18:42:13.113Z,42.38
2022-12-20T18:44:39.964Z,46.75
2022-12-20T18:47:06.729Z,38.88
2022-12-20T18:49:33.687Z,44.47
2022-12-20T18:52:00.608Z,33.42
2022-12-20T18:54:28.794Z,46.92
2022-12-20T18:56:55.741Z,40.05
2022-12-20T18:59:22.767Z,30.58
2022-12-20T19:01:49.784Z,40.90
2022-12-20T19:04:22.417Z,44.33
2022-12-20T19:06:51.242Z,39.42
2022-12-20T19:09:18.050Z,35.50
2022-12-20T19:11:47.507Z,47.15
2022-12-20T19:14:17.092Z,41.05
2022-12-20T19:16:43.922Z,35.25
2022-12-20T19:19:10.805Z,41.50
2022-12-20T19:21:40.106Z,34.85
2022-12-20T19:24:07.559Z,38.65
2022-12-20T19:26:36.639Z,31.25
2022-12-20T19:29:05.807Z,37.05
2022-12-20T19:31:34.194Z,36.55
2022-12-20T19:34:02.703Z,38.50
2022-12-20T19:36:31.730Z,38.95
2022-12-20T19:38:59.879Z,33.72
2022-12-20T19:41:28.102Z,39.50
2022-12-20T19:43:55.070Z,37.17
2022-12-20T19:46:28.313Z,40.97
2022-12-20T19:51:23.596Z,28.42
2022-12-20T19:53:51.082Z,41.90
2022-12-20T19:56:20.208Z,27.83
2022-12-20T19:58:47.014Z,34.83
2022-12-20T20:01:14.568Z,35.97
2022-12-20T20:03:42.740Z,35.50
2022-12-20T20:06:10.342Z,37.05
2022-12-20T20:08:37.066Z,35.28
2022-12-20T20:11:09.410Z,41.00
2022-12-20T20:13:37.771Z,44.87
2022-12-20T20:16:05.871Z,40.15
2022-12-20T20:18:34.015Z,36.63
2022-12-20T20:21:06.518Z,35.17
2022-12-20T20:23:33.899Z,37.70
2022-12-20T20:26:00.690Z,37.67
2022-12-20T20:28:32.328Z,37.45
2022-12-20T20:31:01.478Z,33.30
2022-12-20T20:33:28.349Z,39.50
2022-12-20T20:35:55.988Z,32.67
2022-12-20T20:38:24.164Z,36.65
2022-12-20T20:40:51.433Z,35.08
2022-12-20T20:43:18.755Z,33.35
2022-12-20T20:45:45.766Z,34.17
2022-12-20T20:48:13.042Z,35.75
2022-12-20T20:50:40.276Z,40.03
2022-12-20T20:53:07.329Z,35.15
2022-12-20T20:55:35.930Z,36.42
2022-12-20T20:58:03.220Z,39.55
2022-12-20T21:00:30.504Z,30.05
2022-12-20T21:02:57.662Z,37.35
2022-12-20T21:08:11.429Z,30.17
2022-12-20T21:10:39.649Z,22.92
2022-12-20T21:13:06.457Z,32.17
2022-12-20T21:15:34.138Z,37.70
2022-12-20T21:18:00.912Z,32.03
2022-12-20T21:20:27.625Z,33.50
2022-12-20T21:22:54.377Z,39.17
2022-12-20T21:25:21.159Z,40.50
2022-12-20T21:27:49.229Z,42.33
2022-12-20T21:30:16.160Z,34.97
2022-12-20T21:32:42.914Z,38.67
2022-12-20T21:35:10.135Z,35.80
2022-12-20T21:37:36.952Z,31.63
2022-12-20T21:40:04.519Z,36.63
2022-12-20T21:42:31.755Z,45.83
2022-12-20T21:44:59.869Z,38.92
2022-12-20T21:47:26.647Z,38.00
2022-12-20T21:49:53.419Z,33.20
2022-12-20T21:52:20.160Z,39.45
2022-12-20T21:54:46.867Z,31.50
2022-12-20T21:57:13.615Z,19.38
2022-12-20T21:59:40.325Z,34.65
2022-12-20T22:02:11.378Z,43.30
2022-12-20T22:04:38.615Z,37.95
2022-12-20T22:07:05.320Z,36.55
2022-12-20T22:09:32.003Z,39.30
2022-12-20T22:11:58.788Z,35.80
2022-12-20T22:14:25.715Z,44.35
2022-12-20T22:16:52.480Z,43.25
2022-12-20T22:19:20.700Z,37.00
2022-12-20T22:21:52.265Z,33.28
2022-12-20T22:24:22.573Z,33.38
2022-12-20T22:26:49.272Z,38.95
2022-12-20T22:29:15.968Z,35.58
2022-12-20T22:31:43.019Z,32.92
2022-12-20T22:34:09.764Z,29.15
2022-12-20T22:36:37.915Z,37.72
2022-12-20T22:39:04.802Z,41.20
2022-12-20T22:41:32.888Z,35.13
2022-12-20T22:44:00.511Z,32.38
2022-12-20T22:46:28.532Z,32.58
2022-12-20T22:48:55.410Z,38.00
2022-12-20T22:51:23.380Z,38.13
2022-12-20T22:53:51.611Z,39.25
2022-12-20T22:56:19.426Z,48.28
2022-12-20T22:58:46.616Z,32.72
2022-12-20T23:01:15.666Z,32.70
2022-12-20T23:03:43.112Z,34.88
2022-12-20T23:06:13.112Z,39.53
2022-12-20T23:08:39.856Z,44.13
2022-12-20T23:11:15.324Z,45.83
2022-12-20T23:13:42.699Z,31.98
2022-12-20T23:16:11.980Z,40.58
2022-12-20T23:18:38.760Z,35.22
2022-12-20T23:21:05.732Z,34.70
2022-12-20T23:23:32.656Z,35.53
2022-12-20T23:26:09.791Z,37.15
2022-12-20T23:28:36.516Z,43.78
2022-12-20T23:31:03.613Z,38.50
2022-12-20T23:33:30.418Z,36.58
2022-12-20T23:35:57.383Z,34.40
2022-12-20T23:38:24.209Z,32.38
2022-12-20T23:40:51.009Z,39.03
2022-12-20T23:43:19.228Z,26.92
2022-12-20T23:45:46.015Z,30.58
2022-12-20T23:48:12.761Z,33.78
2022-12-20T23:50:39.635Z,39.47
2022-12-20T23:53:06.341Z,33.67
2022-12-20T23:55:33.045Z,32.55
2022-12-20T23:57:59.768Z,28.40
